Terminal Aerodrome Forecast
Issued by NWS Nashville, TN

Home | Current Version | Previous Version | Text Only | Print | Product List | Glossary On
Versions: 1 2 3 4 5 6 7 8 9 10 11 12 13 14 15 16 17 18 19
000
FTUS44 KOHX 242300
TAFCSV
TAF
KCSV 242335Z 2500/2524 19008KT P6SM SCT250
     FM250400 18005KT P6SM BKN100
     FM250600 18010G20KT P6SM VCTS BKN050CB
      TEMPO 2508/2512 2SM TSRA OVC025CB
     FM251200 24010KT P6SM VCSH SCT007 OVC015
     FM251600 29010G20KT P6SM BKN015=

USA.gov is the U.S. government's official web portal to all federal, state and local government web resources and services.